sensor_id;sensor_type;location;lat;lon;timestamp;temperature;humidity
19908;DHT22;10116;53.112;7.356;2022-08-25T00:01:22;30.30;99.90
19908;DHT22;10116;53.112;7.356;2022-08-25T00:03:48;30.30;99.90
19908;DHT22;10116;53.112;7.356;2022-08-25T00:06:14;30.30;99.90
19908;DHT22;10116;53.112;7.356;2022-08-25T00:08:41;30.30;99.90
19908;DHT22;10116;53.112;7.356;2022-08-25T00:11:17;30.30;99.90
19908;DHT22;10116;53.112;7.356;2022-08-25T00:13:46;30.30;99.90
19908;DHT22;10116;53.112;7.356;2022-08-25T00:16:14;30.30;99.90
19908;DHT22;10116;53.112;7.356;2022-08-25T00:18:43;30.30;99.90
19908;DHT22;10116;53.112;7.356;2022-08-25T00:21:10;30.30;99.90
19908;DHT22;10116;53.112;7.356;2022-08-25T00:23:36;30.30;99.90
19908;DHT22;10116;53.112;7.356;2022-08-25T00:26:02;30.30;99.90
19908;DHT22;10116;53.112;7.356;2022-08-25T00:28:28;30.30;99.90
19908;DHT22;10116;53.112;7.356;2022-08-25T00:30:55;30.30;99.90
19908;DHT22;10116;53.112;7.356;2022-08-25T00:33:21;30.30;99.90
19908;DHT22;10116;53.112;7.356;2022-08-25T00:35:47;30.20;99.90
19908;DHT22;10116;53.112;7.356;2022-08-25T00:38:12;30.30;99.90
19908;DHT22;10116;53.112;7.356;2022-08-25T00:40:39;30.20;99.90
19908;DHT22;10116;53.112;7.356;2022-08-25T00:43:08;30.20;99.90
19908;DHT22;10116;53.112;7.356;2022-08-25T00:45:35;30.20;99.90
19908;DHT22;10116;53.112;7.356;2022-08-25T00:48:00;30.20;99.90
19908;DHT22;10116;53.112;7.356;2022-08-25T00:50:28;30.20;99.90
19908;DHT22;10116;53.112;7.356;2022-08-25T00:52:56;30.20;99.90
19908;DHT22;10116;53.112;7.356;2022-08-25T00:55:30;30.20;99.90
19908;DHT22;10116;53.112;7.356;2022-08-25T00:58:20;30.20;99.90
19908;DHT22;10116;53.112;7.356;2022-08-25T01:00:48;30.20;99.90
19908;DHT22;10116;53.112;7.356;2022-08-25T01:03:16;30.20;99.90
19908;DHT22;10116;53.112;7.356;2022-08-25T01:05:43;30.20;99.90
19908;DHT22;10116;53.112;7.356;2022-08-25T01:08:10;30.20;99.90
19908;DHT22;10116;53.112;7.356;2022-08-25T01:10:39;30.20;99.90
19908;DHT22;10116;53.112;7.356;2022-08-25T01:13:17;30.20;99.90
19908;DHT22;10116;53.112;7.356;2022-08-25T01:15:45;30.20;99.90
19908;DHT22;10116;53.112;7.356;2022-08-25T01:18:13;30.20;99.90
19908;DHT22;10116;53.112;7.356;2022-08-25T01:20:40;30.20;99.90
19908;DHT22;10116;53.112;7.356;2022-08-25T01:23:05;30.20;99.90
19908;DHT22;10116;53.112;7.356;2022-08-25T01:28:20;30.20;99.90
19908;DHT22;10116;53.112;7.356;2022-08-25T01:30:46;30.20;99.90
19908;DHT22;10116;53.112;7.356;2022-08-25T01:33:12;30.10;99.90
19908;DHT22;10116;53.112;7.356;2022-08-25T01:38:47;30.10;99.90
19908;DHT22;10116;53.112;7.356;2022-08-25T01:41:16;30.10;99.90
19908;DHT22;10116;53.112;7.356;2022-08-25T01:43:45;30.10;99.90
19908;DHT22;10116;53.112;7.356;2022-08-25T01:46:11;30.10;99.90
19908;DHT22;10116;53.112;7.356;2022-08-25T01:51:24;30.10;99.90
19908;DHT22;10116;53.112;7.356;2022-08-25T01:53:52;30.10;99.90
19908;DHT22;10116;53.112;7.356;2022-08-25T01:56:18;30.10;99.90
19908;DHT22;10116;53.112;7.356;2022-08-25T01:59:15;30.10;99.90
19908;DHT22;10116;53.112;7.356;2022-08-25T02:01:41;30.10;99.90
19908;DHT22;10116;53.112;7.356;2022-08-25T02:04:07;30.10;99.90
19908;DHT22;10116;53.112;7.356;2022-08-25T02:06:33;30.10;99.90
19908;DHT22;10116;53.112;7.356;2022-08-25T02:09:11;30.10;99.90
19908;DHT22;10116;53.112;7.356;2022-08-25T02:11:39;30.10;99.90
19908;DHT22;10116;53.112;7.356;2022-08-25T02:14:07;30.10;99.90
19908;DHT22;10116;53.112;7.356;2022-08-25T02:17:11;30.10;99.90
19908;DHT22;10116;53.112;7.356;2022-08-25T02:19:37;30.10;99.90
19908;DHT22;10116;53.112;7.356;2022-08-25T02:22:03;30.10;99.90
19908;DHT22;10116;53.112;7.356;2022-08-25T02:24:28;30.10;99.90
19908;DHT22;10116;53.112;7.356;2022-08-25T02:26:54;30.00;99.90
19908;DHT22;10116;53.112;7.356;2022-08-25T02:29:20;30.10;99.90
19908;DHT22;10116;53.112;7.356;2022-08-25T02:31:45;30.00;99.90
19908;DHT22;10116;53.112;7.356;2022-08-25T02:34:11;30.00;99.90
19908;DHT22;10116;53.112;7.356;2022-08-25T02:36:38;30.00;99.90
19908;DHT22;10116;53.112;7.356;2022-08-25T02:39:08;30.00;99.90
19908;DHT22;10116;53.112;7.356;2022-08-25T02:41:34;30.00;99.90
19908;DHT22;10116;53.112;7.356;2022-08-25T02:44:01;30.00;99.90
19908;DHT22;10116;53.112;7.356;2022-08-25T02:46:27;29.90;99.90
19908;DHT22;10116;53.112;7.356;2022-08-25T02:48:53;29.90;99.90
19908;DHT22;10116;53.112;7.356;2022-08-25T02:51:21;29.90;99.90
19908;DHT22;10116;53.112;7.356;2022-08-25T02:53:47;29.90;99.90
19908;DHT22;10116;53.112;7.356;2022-08-25T02:56:15;29.90;99.90
19908;DHT22;10116;53.112;7.356;2022-08-25T02:58:41;29.90;99.90
19908;DHT22;10116;53.112;7.356;2022-08-25T03:01:07;29.90;99.90
19908;DHT22;10116;53.112;7.356;2022-08-25T03:03:38;29.90;99.90
19908;DHT22;10116;53.112;7.356;2022-08-25T03:06:09;29.90;99.90
19908;DHT22;10116;53.112;7.356;2022-08-25T03:08:35;29.90;99.90
19908;DHT22;10116;53.112;7.356;2022-08-25T03:11:02;29.90;99.90
19908;DHT22;10116;53.112;7.356;2022-08-25T03:13:27;29.90;99.90
19908;DHT22;10116;53.112;7.356;2022-08-25T03:15:53;29.90;99.90
19908;DHT22;10116;53.112;7.356;2022-08-25T03:18:18;29.90;99.90
19908;DHT22;10116;53.112;7.356;2022-08-25T03:20:44;29.90;99.90
19908;DHT22;10116;53.112;7.356;2022-08-25T03:23:10;29.90;99.90
19908;DHT22;10116;53.112;7.356;2022-08-25T03:25:39;29.90;99.90
19908;DHT22;10116;53.112;7.356;2022-08-25T03:28:24;29.90;99.90
19908;DHT22;10116;53.112;7.356;2022-08-25T03:30:50;29.90;99.90
19908;DHT22;10116;53.112;7.356;2022-08-25T03:33:17;29.90;99.90
19908;DHT22;10116;53.112;7.356;2022-08-25T03:35:42;30.00;99.90
19908;DHT22;10116;53.112;7.356;2022-08-25T03:38:08;30.00;99.90
19908;DHT22;10116;53.112;7.356;2022-08-25T03:40:34;30.10;99.90
19908;DHT22;10116;53.112;7.356;2022-08-25T03:42:59;30.10;99.90
19908;DHT22;10116;53.112;7.356;2022-08-25T03:45:25;30.20;99.90
19908;DHT22;10116;53.112;7.356;2022-08-25T03:47:51;30.20;99.90
19908;DHT22;10116;53.112;7.356;2022-08-25T03:50:18;30.20;99.90
19908;DHT22;10116;53.112;7.356;2022-08-25T03:52:44;30.30;99.90
19908;DHT22;10116;53.112;7.356;2022-08-25T03:55:12;30.30;99.90
19908;DHT22;10116;53.112;7.356;2022-08-25T03:57:38;30.30;99.90
19908;DHT22;10116;53.112;7.356;2022-08-25T04:00:08;30.30;99.90
19908;DHT22;10116;53.112;7.356;2022-08-25T04:02:34;30.30;99.90
19908;DHT22;10116;53.112;7.356;2022-08-25T04:05:00;30.30;99.90
19908;DHT22;10116;53.112;7.356;2022-08-25T04:07:26;30.30;99.90
19908;DHT22;10116;53.112;7.356;2022-08-25T04:09:53;30.30;99.90
19908;DHT22;10116;53.112;7.356;2022-08-25T04:12:19;30.30;99.90
19908;DHT22;10116;53.112;7.356;2022-08-25T04:14:44;30.30;99.90
19908;DHT22;10116;53.112;7.356;2022-08-25T04:17:10;30.30;99.90
19908;DHT22;10116;53.112;7.356;2022-08-25T04:19:36;30.30;99.90
19908;DHT22;10116;53.112;7.356;2022-08-25T04:22:02;30.30;99.90
19908;DHT22;10116;53.112;7.356;2022-08-25T04:24:28;30.30;99.90
19908;DHT22;10116;53.112;7.356;2022-08-25T04:26:54;30.30;99.90
19908;DHT22;10116;53.112;7.356;2022-08-25T04:29:22;30.30;99.90
19908;DHT22;10116;53.112;7.356;2022-08-25T04:31:48;30.30;99.90
19908;DHT22;10116;53.112;7.356;2022-08-25T04:34:16;30.30;99.90
19908;DHT22;10116;53.112;7.356;2022-08-25T04:36:42;30.20;99.90
19908;DHT22;10116;53.112;7.356;2022-08-25T04:39:08;30.30;99.90
19908;DHT22;10116;53.112;7.356;2022-08-25T04:41:33;30.20;99.90
19908;DHT22;10116;53.112;7.356;2022-08-25T04:44:00;30.30;99.90
19908;DHT22;10116;53.112;7.356;2022-08-25T04:46:29;30.20;99.90
19908;DHT22;10116;53.112;7.356;2022-08-25T04:48:56;30.20;99.90
19908;DHT22;10116;53.112;7.356;2022-08-25T04:51:27;30.20;99.90
19908;DHT22;10116;53.112;7.356;2022-08-25T04:53:54;30.20;99.90
19908;DHT22;10116;53.112;7.356;2022-08-25T04:56:21;30.20;99.90
19908;DHT22;10116;53.112;7.356;2022-08-25T04:58:50;30.20;99.90
19908;DHT22;10116;53.112;7.356;2022-08-25T05:01:18;30.20;99.90
19908;DHT22;10116;53.112;7.356;2022-08-25T05:03:46;30.20;99.90
19908;DHT22;10116;53.112;7.356;2022-08-25T05:06:12;30.20;99.90
19908;DHT22;10116;53.112;7.356;2022-08-25T05:08:39;30.20;99.90
19908;DHT22;10116;53.112;7.356;2022-08-25T05:11:06;30.20;99.90
19908;DHT22;10116;53.112;7.356;2022-08-25T05:13:32;30.20;99.90
19908;DHT22;10116;53.112;7.356;2022-08-25T05:15:59;30.30;99.90
19908;DHT22;10116;53.112;7.356;2022-08-25T05:18:28;30.30;99.90
19908;DHT22;10116;53.112;7.356;2022-08-25T05:20:54;30.30;99.90
19908;DHT22;10116;53.112;7.356;2022-08-25T05:23:22;30.30;99.90
19908;DHT22;10116;53.112;7.356;2022-08-25T05:25:49;30.40;99.90
19908;DHT22;10116;53.112;7.356;2022-08-25T05:28:16;30.40;99.90
19908;DHT22;10116;53.112;7.356;2022-08-25T05:30:42;30.40;99.90
19908;DHT22;10116;53.112;7.356;2022-08-25T05:33:09;30.40;99.90
19908;DHT22;10116;53.112;7.356;2022-08-25T05:35:35;30.40;99.90
19908;DHT22;10116;53.112;7.356;2022-08-25T05:38:01;30.50;99.90
19908;DHT22;10116;53.112;7.356;2022-08-25T05:40:28;30.50;99.90
19908;DHT22;10116;53.112;7.356;2022-08-25T05:42:54;30.60;99.90
19908;DHT22;10116;53.112;7.356;2022-08-25T05:45:20;30.70;99.90
19908;DHT22;10116;53.112;7.356;2022-08-25T05:47:45;30.70;99.90
19908;DHT22;10116;53.112;7.356;2022-08-25T05:50:11;30.80;99.90
19908;DHT22;10116;53.112;7.356;2022-08-25T05:52:37;30.80;99.90
19908;DHT22;10116;53.112;7.356;2022-08-25T05:55:03;30.90;99.90
19908;DHT22;10116;53.112;7.356;2022-08-25T05:57:29;30.90;99.90
19908;DHT22;10116;53.112;7.356;2022-08-25T05:59:55;31.00;99.90
19908;DHT22;10116;53.112;7.356;2022-08-25T06:02:20;31.00;99.90
19908;DHT22;10116;53.112;7.356;2022-08-25T06:05:05;31.00;99.90
19908;DHT22;10116;53.112;7.356;2022-08-25T06:07:30;31.00;99.90
19908;DHT22;10116;53.112;7.356;2022-08-25T06:09:56;31.00;99.90
19908;DHT22;10116;53.112;7.356;2022-08-25T06:12:21;31.10;99.90
19908;DHT22;10116;53.112;7.356;2022-08-25T06:14:47;31.10;99.90
19908;DHT22;10116;53.112;7.356;2022-08-25T06:17:16;31.10;99.90
19908;DHT22;10116;53.112;7.356;2022-08-25T06:19:41;31.10;99.90
19908;DHT22;10116;53.112;7.356;2022-08-25T06:22:07;31.10;99.90
19908;DHT22;10116;53.112;7.356;2022-08-25T06:24:33;31.10;99.90
19908;DHT22;10116;53.112;7.356;2022-08-25T06:26:59;31.10;99.90
19908;DHT22;10116;53.112;7.356;2022-08-25T06:29:25;31.10;99.90
19908;DHT22;10116;53.112;7.356;2022-08-25T06:31:51;31.00;99.90
19908;DHT22;10116;53.112;7.356;2022-08-25T06:34:17;31.00;99.90
19908;DHT22;10116;53.112;7.356;2022-08-25T06:36:43;31.00;99.90
19908;DHT22;10116;53.112;7.356;2022-08-25T06:39:09;31.00;99.90
19908;DHT22;10116;53.112;7.356;2022-08-25T06:41:34;31.00;99.90
19908;DHT22;10116;53.112;7.356;2022-08-25T06:44:00;31.00;99.90
19908;DHT22;10116;53.112;7.356;2022-08-25T06:46:27;31.00;99.90
19908;DHT22;10116;53.112;7.356;2022-08-25T06:48:54;31.00;99.90
19908;DHT22;10116;53.112;7.356;2022-08-25T06:51:21;31.00;99.90
19908;DHT22;10116;53.112;7.356;2022-08-25T06:53:48;31.00;99.90
19908;DHT22;10116;53.112;7.356;2022-08-25T06:56:15;31.00;99.90
19908;DHT22;10116;53.112;7.356;2022-08-25T06:58:41;31.00;99.90
19908;DHT22;10116;53.112;7.356;2022-08-25T07:01:22;31.00;99.90
19908;DHT22;10116;53.112;7.356;2022-08-25T07:03:51;31.00;99.90
19908;DHT22;10116;53.112;7.356;2022-08-25T07:06:19;31.00;99.90
19908;DHT22;10116;53.112;7.356;2022-08-25T07:08:46;30.90;99.90
19908;DHT22;10116;53.112;7.356;2022-08-25T07:11:13;30.90;99.90
19908;DHT22;10116;53.112;7.356;2022-08-25T07:13:39;30.90;99.90
19908;DHT22;10116;53.112;7.356;2022-08-25T07:16:05;30.90;99.90
19908;DHT22;10116;53.112;7.356;2022-08-25T07:18:31;30.90;99.90
19908;DHT22;10116;53.112;7.356;2022-08-25T07:20:58;30.90;99.90
19908;DHT22;10116;53.112;7.356;2022-08-25T07:23:25;30.90;99.90
19908;DHT22;10116;53.112;7.356;2022-08-25T07:25:51;30.80;99.90
19908;DHT22;10116;53.112;7.356;2022-08-25T07:28:17;30.80;99.90
19908;DHT22;10116;53.112;7.356;2022-08-25T07:30:43;30.80;99.90
19908;DHT22;10116;53.112;7.356;2022-08-25T07:33:09;30.80;99.90
19908;DHT22;10116;53.112;7.356;2022-08-25T07:35:35;30.80;99.90
19908;DHT22;10116;53.112;7.356;2022-08-25T07:38:04;30.80;99.90
19908;DHT22;10116;53.112;7.356;2022-08-25T07:40:35;30.80;99.90
19908;DHT22;10116;53.112;7.356;2022-08-25T07:43:05;30.80;99.90
19908;DHT22;10116;53.112;7.356;2022-08-25T07:45:35;30.80;99.90
19908;DHT22;10116;53.112;7.356;2022-08-25T07:48:06;30.80;99.90
19908;DHT22;10116;53.112;7.356;2022-08-25T07:50:34;30.90;99.90
19908;DHT22;10116;53.112;7.356;2022-08-25T07:53:04;30.90;99.90
19908;DHT22;10116;53.112;7.356;2022-08-25T07:55:30;31.00;99.90
19908;DHT22;10116;53.112;7.356;2022-08-25T07:57:56;31.00;99.90
19908;DHT22;10116;53.112;7.356;2022-08-25T08:00:25;31.00;99.90
19908;DHT22;10116;53.112;7.356;2022-08-25T08:02:51;31.00;99.90
19908;DHT22;10116;53.112;7.356;2022-08-25T08:05:17;31.00;99.90
19908;DHT22;10116;53.112;7.356;2022-08-25T08:07:43;31.00;99.90
19908;DHT22;10116;53.112;7.356;2022-08-25T08:10:11;31.00;99.90
19908;DHT22;10116;53.112;7.356;2022-08-25T08:12:38;31.00;99.90
19908;DHT22;10116;53.112;7.356;2022-08-25T08:15:04;31.00;99.90
19908;DHT22;10116;53.112;7.356;2022-08-25T08:17:30;31.00;99.90
19908;DHT22;10116;53.112;7.356;2022-08-25T08:19:57;31.00;99.90
19908;DHT22;10116;53.112;7.356;2022-08-25T08:22:22;31.00;99.90
19908;DHT22;10116;53.112;7.356;2022-08-25T08:24:48;31.00;99.90
19908;DHT22;10116;53.112;7.356;2022-08-25T08:27:14;31.00;99.90
19908;DHT22;10116;53.112;7.356;2022-08-25T08:29:40;31.00;99.90
19908;DHT22;10116;53.112;7.356;2022-08-25T08:32:10;31.00;99.90
19908;DHT22;10116;53.112;7.356;2022-08-25T08:34:38;31.00;99.90
19908;DHT22;10116;53.112;7.356;2022-08-25T08:37:05;30.90;99.90
19908;DHT22;10116;53.112;7.356;2022-08-25T08:39:31;30.90;99.90
19908;DHT22;10116;53.112;7.356;2022-08-25T08:42:23;30.80;99.90
19908;DHT22;10116;53.112;7.356;2022-08-25T08:47:33;30.80;99.90
19908;DHT22;10116;53.112;7.356;2022-08-25T08:55:06;30.80;99.90
19908;DHT22;10116;53.112;7.356;2022-08-25T08:57:38;30.80;99.90
19908;DHT22;10116;53.112;7.356;2022-08-25T09:00:08;30.80;99.90
19908;DHT22;10116;53.112;7.356;2022-08-25T09:05:17;30.80;99.90
19908;DHT22;10116;53.112;7.356;2022-08-25T09:07:52;30.80;99.90
19908;DHT22;10116;53.112;7.356;2022-08-25T09:10:19;30.80;99.90
19908;DHT22;10116;53.112;7.356;2022-08-25T09:13:02;30.80;99.90
19908;DHT22;10116;53.112;7.356;2022-08-25T09:24:50;30.80;99.90
19908;DHT22;10116;53.112;7.356;2022-08-25T09:27:29;30.70;99.90
19908;DHT22;10116;53.112;7.356;2022-08-25T09:30:10;30.80;99.90
19908;DHT22;10116;53.112;7.356;2022-08-25T09:32:41;30.80;99.90
19908;DHT22;10116;53.112;7.356;2022-08-25T09:35:18;30.80;99.90
19908;DHT22;10116;53.112;7.356;2022-08-25T09:37:59;30.80;99.90
19908;DHT22;10116;53.112;7.356;2022-08-25T09:40:27;30.70;99.90
19908;DHT22;10116;53.112;7.356;2022-08-25T09:42:56;30.80;99.90
19908;DHT22;10116;53.112;7.356;2022-08-25T09:45:41;30.80;99.90
19908;DHT22;10116;53.112;7.356;2022-08-25T09:50:58;30.80;99.90
19908;DHT22;10116;53.112;7.356;2022-08-25T09:53:26;30.80;99.90
19908;DHT22;10116;53.112;7.356;2022-08-25T09:55:59;30.80;99.90
19908;DHT22;10116;53.112;7.356;2022-08-25T09:58:28;30.80;99.90
19908;DHT22;10116;53.112;7.356;2022-08-25T10:01:23;30.80;99.90
19908;DHT22;10116;53.112;7.356;2022-08-25T10:04:04;30.80;99.90
19908;DHT22;10116;53.112;7.356;2022-08-25T10:06:35;30.80;99.90
19908;DHT22;10116;53.112;7.356;2022-08-25T10:09:08;30.80;99.90
19908;DHT22;10116;53.112;7.356;2022-08-25T10:11:44;30.80;99.90
19908;DHT22;10116;53.112;7.356;2022-08-25T10:16:50;30.90;99.90
19908;DHT22;10116;53.112;7.356;2022-08-25T10:19:23;31.00;99.90
19908;DHT22;10116;53.112;7.356;2022-08-25T10:24:37;31.10;99.90
19908;DHT22;10116;53.112;7.356;2022-08-25T10:32:48;31.10;99.90
19908;DHT22;10116;53.112;7.356;2022-08-25T10:38:36;31.20;99.90
19908;DHT22;10116;53.112;7.356;2022-08-25T10:41:15;31.20;99.90
19908;DHT22;10116;53.112;7.356;2022-08-25T10:49:45;31.20;99.90
19908;DHT22;10116;53.112;7.356;2022-08-25T10:52:22;31.20;99.90
19908;DHT22;10116;53.112;7.356;2022-08-25T10:54:57;31.20;99.90
19908;DHT22;10116;53.112;7.356;2022-08-25T11:13:42;31.30;99.90
19908;DHT22;10116;53.112;7.356;2022-08-25T11:16:15;31.30;99.90
19908;DHT22;10116;53.112;7.356;2022-08-25T11:18:51;31.20;99.90
19908;DHT22;10116;53.112;7.356;2022-08-25T11:24:41;31.30;99.90
19908;DHT22;10116;53.112;7.356;2022-08-25T11:27:15;31.30;99.90
19908;DHT22;10116;53.112;7.356;2022-08-25T11:30:20;31.30;99.90
19908;DHT22;10116;53.112;7.356;2022-08-25T11:32:39;31.30;99.90
19908;DHT22;10116;53.112;7.356;2022-08-25T11:35:10;31.30;99.90
19908;DHT22;10116;53.112;7.356;2022-08-25T11:51:51;31.30;99.90
19908;DHT22;10116;53.112;7.356;2022-08-25T11:54:33;31.30;99.90
19908;DHT22;10116;53.112;7.356;2022-08-25T11:57:16;31.30;99.90
19908;DHT22;10116;53.112;7.356;2022-08-25T12:02:44;31.30;99.90
19908;DHT22;10116;53.112;7.356;2022-08-25T12:10:21;31.30;99.90
19908;DHT22;10116;53.112;7.356;2022-08-25T12:26:17;31.30;99.90
19908;DHT22;10116;53.112;7.356;2022-08-25T12:28:55;31.30;99.90
19908;DHT22;10116;53.112;7.356;2022-08-25T12:36:56;31.30;99.90
19908;DHT22;10116;53.112;7.356;2022-08-25T12:39:29;31.30;99.90
19908;DHT22;10116;53.112;7.356;2022-08-25T12:42:00;31.30;99.90
19908;DHT22;10116;53.112;7.356;2022-08-25T12:44:44;31.30;99.90
19908;DHT22;10116;53.112;7.356;2022-08-25T12:47:28;31.30;99.90
19908;DHT22;10116;53.112;7.356;2022-08-25T12:52:51;31.30;99.90
19908;DHT22;10116;53.112;7.356;2022-08-25T12:55:17;31.30;99.90
19908;DHT22;10116;53.112;7.356;2022-08-25T12:57:52;31.30;99.90
19908;DHT22;10116;53.112;7.356;2022-08-25T13:00:36;31.30;99.90
19908;DHT22;10116;53.112;7.356;2022-08-25T13:11:38;31.30;99.90
19908;DHT22;10116;53.112;7.356;2022-08-25T13:14:06;31.30;99.90
19908;DHT22;10116;53.112;7.356;2022-08-25T13:16:36;31.30;99.90
19908;DHT22;10116;53.112;7.356;2022-08-25T13:19:05;31.40;99.90
19908;DHT22;10116;53.112;7.356;2022-08-25T13:21:35;31.40;99.90
19908;DHT22;10116;53.112;7.356;2022-08-25T13:24:06;31.50;99.90
19908;DHT22;10116;53.112;7.356;2022-08-25T13:26:42;31.60;99.90
19908;DHT22;10116;53.112;7.356;2022-08-25T13:31:36;31.60;99.90
19908;DHT22;10116;53.112;7.356;2022-08-25T13:34:05;31.60;99.90
19908;DHT22;10116;53.112;7.356;2022-08-25T13:36:34;31.70;99.90
19908;DHT22;10116;53.112;7.356;2022-08-25T13:39:22;31.70;99.90
19908;DHT22;10116;53.112;7.356;2022-08-25T13:41:51;31.70;99.90
19908;DHT22;10116;53.112;7.356;2022-08-25T13:44:19;31.70;99.90
19908;DHT22;10116;53.112;7.356;2022-08-25T13:46:45;31.70;99.90
19908;DHT22;10116;53.112;7.356;2022-08-25T13:49:23;31.70;99.90
19908;DHT22;10116;53.112;7.356;2022-08-25T13:51:53;31.70;99.90
19908;DHT22;10116;53.112;7.356;2022-08-25T13:54:29;31.80;99.90
19908;DHT22;10116;53.112;7.356;2022-08-25T13:57:06;31.70;99.90
19908;DHT22;10116;53.112;7.356;2022-08-25T13:59:37;31.70;99.90
19908;DHT22;10116;53.112;7.356;2022-08-25T14:02:05;31.70;99.90
19908;DHT22;10116;53.112;7.356;2022-08-25T14:12:31;31.70;99.90
19908;DHT22;10116;53.112;7.356;2022-08-25T14:17:33;31.70;99.90
19908;DHT22;10116;53.112;7.356;2022-08-25T14:19:59;31.70;99.90
19908;DHT22;10116;53.112;7.356;2022-08-25T14:22:25;31.70;99.90
19908;DHT22;10116;53.112;7.356;2022-08-25T14:24:52;31.70;99.90
19908;DHT22;10116;53.112;7.356;2022-08-25T14:27:18;31.70;99.90
19908;DHT22;10116;53.112;7.356;2022-08-25T14:29:44;31.70;99.90
19908;DHT22;10116;53.112;7.356;2022-08-25T14:32:11;31.70;99.90
19908;DHT22;10116;53.112;7.356;2022-08-25T14:34:38;31.70;99.90
19908;DHT22;10116;53.112;7.356;2022-08-25T14:37:14;31.70;99.90
19908;DHT22;10116;53.112;7.356;2022-08-25T14:39:40;31.70;99.90
19908;DHT22;10116;53.112;7.356;2022-08-25T14:42:06;31.70;99.90
19908;DHT22;10116;53.112;7.356;2022-08-25T14:44:32;31.70;99.90
19908;DHT22;10116;53.112;7.356;2022-08-25T14:46:59;31.70;99.90
19908;DHT22;10116;53.112;7.356;2022-08-25T14:49:29;31.70;99.90
19908;DHT22;10116;53.112;7.356;2022-08-25T14:52:03;31.60;99.90
19908;DHT22;10116;53.112;7.356;2022-08-25T14:54:30;31.70;99.90
19908;DHT22;10116;53.112;7.356;2022-08-25T14:56:56;31.60;99.90
19908;DHT22;10116;53.112;7.356;2022-08-25T14:59:22;31.60;99.90
19908;DHT22;10116;53.112;7.356;2022-08-25T15:01:48;31.60;99.90
19908;DHT22;10116;53.112;7.356;2022-08-25T15:04:18;31.60;99.90
19908;DHT22;10116;53.112;7.356;2022-08-25T15:06:44;31.60;99.90
19908;DHT22;10116;53.112;7.356;2022-08-25T15:09:13;31.70;99.90
19908;DHT22;10116;53.112;7.356;2022-08-25T15:11:46;31.70;99.90
19908;DHT22;10116;53.112;7.356;2022-08-25T15:14:14;31.70;99.90
19908;DHT22;10116;53.112;7.356;2022-08-25T15:16:50;31.80;99.90
19908;DHT22;10116;53.112;7.356;2022-08-25T15:19:18;31.80;99.90
19908;DHT22;10116;53.112;7.356;2022-08-25T15:21:45;31.90;99.90
19908;DHT22;10116;53.112;7.356;2022-08-25T15:24:12;31.90;99.90
19908;DHT22;10116;53.112;7.356;2022-08-25T15:26:47;31.90;99.90
19908;DHT22;10116;53.112;7.356;2022-08-25T15:29:15;31.90;99.90
19908;DHT22;10116;53.112;7.356;2022-08-25T15:31:41;31.90;99.90
19908;DHT22;10116;53.112;7.356;2022-08-25T15:34:07;31.90;99.90
19908;DHT22;10116;53.112;7.356;2022-08-25T15:36:33;31.90;99.90
19908;DHT22;10116;53.112;7.356;2022-08-25T15:39:00;31.90;99.90
19908;DHT22;10116;53.112;7.356;2022-08-25T15:41:26;31.90;99.90
19908;DHT22;10116;53.112;7.356;2022-08-25T15:43:51;31.90;99.90
19908;DHT22;10116;53.112;7.356;2022-08-25T15:46:19;31.90;99.90
19908;DHT22;10116;53.112;7.356;2022-08-25T15:48:45;31.80;99.90
19908;DHT22;10116;53.112;7.356;2022-08-25T15:51:11;31.80;99.90
19908;DHT22;10116;53.112;7.356;2022-08-25T15:53:37;31.70;99.90
19908;DHT22;10116;53.112;7.356;2022-08-25T15:56:04;31.70;99.90
19908;DHT22;10116;53.112;7.356;2022-08-25T15:58:31;31.70;99.90
19908;DHT22;10116;53.112;7.356;2022-08-25T16:00:57;31.70;99.90
19908;DHT22;10116;53.112;7.356;2022-08-25T16:03:23;31.70;99.90
19908;DHT22;10116;53.112;7.356;2022-08-25T16:05:49;31.70;99.90
19908;DHT22;10116;53.112;7.356;2022-08-25T16:08:15;31.70;99.90
19908;DHT22;10116;53.112;7.356;2022-08-25T16:10:41;31.70;99.90
19908;DHT22;10116;53.112;7.356;2022-08-25T16:13:09;31.70;99.90
19908;DHT22;10116;53.112;7.356;2022-08-25T16:15:36;31.70;99.90
19908;DHT22;10116;53.112;7.356;2022-08-25T16:18:03;31.70;99.90
19908;DHT22;10116;53.112;7.356;2022-08-25T16:20:31;31.60;99.90
19908;DHT22;10116;53.112;7.356;2022-08-25T16:22:57;31.70;99.90
19908;DHT22;10116;53.112;7.356;2022-08-25T16:25:25;31.70;99.90
19908;DHT22;10116;53.112;7.356;2022-08-25T16:27:51;31.60;99.90
19908;DHT22;10116;53.112;7.356;2022-08-25T16:30:17;31.70;99.90
19908;DHT22;10116;53.112;7.356;2022-08-25T16:32:44;31.60;99.90
19908;DHT22;10116;53.112;7.356;2022-08-25T16:35:11;31.60;99.90
19908;DHT22;10116;53.112;7.356;2022-08-25T16:37:38;31.60;99.90
19908;DHT22;10116;53.112;7.356;2022-08-25T16:40:04;31.60;99.90
19908;DHT22;10116;53.112;7.356;2022-08-25T16:42:30;31.60;99.90
19908;DHT22;10116;53.112;7.356;2022-08-25T16:44:56;31.60;99.90
19908;DHT22;10116;53.112;7.356;2022-08-25T16:47:22;31.60;99.90
19908;DHT22;10116;53.112;7.356;2022-08-25T16:49:47;31.60;99.90
19908;DHT22;10116;53.112;7.356;2022-08-25T16:52:14;31.60;99.90
19908;DHT22;10116;53.112;7.356;2022-08-25T16:54:58;31.60;99.90
19908;DHT22;10116;53.112;7.356;2022-08-25T16:57:42;31.60;99.90
19908;DHT22;10116;53.112;7.356;2022-08-25T17:00:11;31.50;99.90
19908;DHT22;10116;53.112;7.356;2022-08-25T17:02:38;31.50;99.90
19908;DHT22;10116;53.112;7.356;2022-08-25T17:05:05;31.50;99.90
19908;DHT22;10116;53.112;7.356;2022-08-25T17:07:32;31.50;99.90
19908;DHT22;10116;53.112;7.356;2022-08-25T17:09:58;31.50;99.90
19908;DHT22;10116;53.112;7.356;2022-08-25T17:12:25;31.50;99.90
19908;DHT22;10116;53.112;7.356;2022-08-25T17:14:52;31.50;99.90
19908;DHT22;10116;53.112;7.356;2022-08-25T17:17:18;31.60;99.90
19908;DHT22;10116;53.112;7.356;2022-08-25T17:19:43;31.60;99.90
19908;DHT22;10116;53.112;7.356;2022-08-25T17:22:09;31.70;99.90
19908;DHT22;10116;53.112;7.356;2022-08-25T17:24:39;31.70;99.90
19908;DHT22;10116;53.112;7.356;2022-08-25T17:27:05;31.70;99.90
19908;DHT22;10116;53.112;7.356;2022-08-25T17:29:31;31.70;99.90
19908;DHT22;10116;53.112;7.356;2022-08-25T17:31:57;31.70;99.90
19908;DHT22;10116;53.112;7.356;2022-08-25T17:34:23;31.80;99.90
19908;DHT22;10116;53.112;7.356;2022-08-25T17:36:50;31.70;99.90
19908;DHT22;10116;53.112;7.356;2022-08-25T17:39:17;31.70;99.90
19908;DHT22;10116;53.112;7.356;2022-08-25T17:41:44;31.70;99.90
19908;DHT22;10116;53.112;7.356;2022-08-25T17:44:10;31.70;99.90
19908;DHT22;10116;53.112;7.356;2022-08-25T17:46:36;31.70;99.90
19908;DHT22;10116;53.112;7.356;2022-08-25T17:49:02;31.60;99.90
19908;DHT22;10116;53.112;7.356;2022-08-25T17:51:28;31.60;99.90
19908;DHT22;10116;53.112;7.356;2022-08-25T17:53:54;31.60;99.90
19908;DHT22;10116;53.112;7.356;2022-08-25T17:56:21;31.60;99.90